Terminal Aerodrome Forecast
Issued by NWS

Home | Current Version | Previous Version | Text Only | Print | Product List | Glossary On
Versions: 1 2 3 4 5 6 7 8 9 10 11 12 13 14 15 16 17 18 19
000
FTUS43 KDVN 251250 AAA
TAFBRL
TAF AMD
KBRL 251250Z 2513/2612 23011KT P6SM VCSH BKN015 OVC025
     FM251600 23014G22KT P6SM SCT025 BKN035
     FM252300 21012KT P6SM SCT040 BKN250
     FM260400 18008KT P6SM BKN050 PROB30 2609/2612 5SM SHRA BKN030=

USA.gov is the U.S. government's official web portal to all federal, state and local government web resources and services.